createdAt,value
2022-08-10T00:00:53.592Z,14.70
2022-08-10T00:03:40.555Z,14.60
2022-08-10T00:06:29.537Z,14.60
2022-08-10T00:09:16.273Z,14.50
2022-08-10T00:12:03.177Z,14.50
2022-08-10T00:14:50.461Z,14.40
2022-08-10T00:17:37.711Z,14.30
2022-08-10T00:20:24.702Z,14.20
2022-08-10T00:23:13.120Z,14.20
2022-08-10T00:26:00.022Z,14.20
2022-08-10T00:28:46.610Z,14.20
2022-08-10T00:31:33.216Z,14.20
2022-08-10T00:34:40.512Z,14.10
2022-08-10T00:37:27.102Z,14.10
2022-08-10T00:40:15.367Z,14.10
2022-08-10T00:43:02.414Z,14.10
2022-08-10T00:45:59.099Z,14.00
2022-08-10T00:48:47.119Z,14.00
2022-08-10T00:51:48.891Z,14.00
2022-08-10T00:54:38.387Z,14.10
2022-08-10T00:57:27.036Z,14.20
2022-08-10T01:00:14.523Z,14.20
2022-08-10T01:03:01.848Z,14.20
2022-08-10T01:06:00.547Z,14.10
2022-08-10T01:08:52.652Z,14.10
2022-08-10T01:12:37.736Z,14.10
2022-08-10T01:15:01.230Z,14.10
2022-08-10T01:17:55.088Z,14.10
2022-08-10T01:21:00.893Z,14.10
2022-08-10T01:24:27.259Z,14.10
2022-08-10T01:27:27.149Z,14.00
2022-08-10T01:30:18.336Z,13.90
2022-08-10T01:33:09.600Z,13.90
2022-08-10T01:36:03.340Z,13.90
2022-08-10T01:38:52.517Z,14.00
2022-08-10T01:41:46.446Z,14.00
2022-08-10T01:44:37.532Z,13.90
2022-08-10T01:47:48.349Z,14.00
2022-08-10T01:50:59.846Z,14.20
2022-08-10T01:53:53.094Z,14.30
2022-08-10T01:56:44.202Z,14.30
2022-08-10T01:59:35.097Z,14.40
2022-08-10T02:02:23.764Z,14.40
2022-08-10T02:05:15.940Z,14.50
2022-08-10T02:08:05.972Z,14.60
2022-08-10T02:10:55.422Z,14.50
2022-08-10T02:13:44.323Z,14.40
2022-08-10T02:16:33.503Z,14.30
2022-08-10T02:19:24.903Z,14.10
2022-08-10T02:22:38.259Z,14.00
2022-08-10T02:25:40.738Z,13.80
2022-08-10T02:28:33.498Z,13.80
2022-08-10T02:31:23.916Z,13.70
2022-08-10T02:34:14.551Z,13.70
2022-08-10T02:37:10.688Z,13.70
2022-08-10T02:39:59.386Z,13.60
2022-08-10T02:45:17.812Z,13.50
2022-08-10T02:46:11.966Z,13.30
2022-08-10T02:49:02.907Z,13.20
2022-08-10T02:52:08.232Z,13.10
2022-08-10T02:55:04.653Z,13.00
2022-08-10T02:58:17.124Z,12.90
2022-08-10T03:01:09.823Z,12.80
2022-08-10T03:04:02.899Z,12.70
2022-08-10T03:06:57.951Z,12.70
2022-08-10T03:09:47.696Z,12.50
2022-08-10T03:12:38.846Z,12.50
2022-08-10T03:15:28.441Z,12.50
2022-08-10T03:18:16.783Z,12.40
2022-08-10T03:21:07.715Z,12.40
2022-08-10T03:23:58.327Z,12.30
2022-08-10T03:26:45.956Z,12.30
2022-08-10T03:30:28.171Z,12.30
2022-08-10T03:32:42.691Z,12.30
2022-08-10T03:35:30.188Z,12.20
2022-08-10T03:38:17.161Z,12.10
2022-08-10T03:41:06.348Z,12.10
2022-08-10T03:43:54.922Z,12.00
2022-08-10T03:46:45.463Z,12.00
2022-08-10T03:49:33.400Z,12.00
2022-08-10T03:52:20.962Z,12.00
2022-08-10T03:55:08.397Z,11.90
2022-08-10T03:57:55.806Z,12.00
2022-08-10T04:00:42.863Z,12.00
2022-08-10T04:03:31.497Z,11.90
2022-08-10T04:06:19.446Z,11.90
2022-08-10T04:09:06.553Z,11.90
2022-08-10T04:11:53.492Z,11.80
2022-08-10T04:14:51.296Z,11.80
2022-08-10T04:18:03.006Z,11.80
2022-08-10T04:20:53.476Z,11.80
2022-08-10T04:23:48.799Z,11.80
2022-08-10T04:26:38.388Z,11.70
2022-08-10T04:29:25.643Z,11.70
2022-08-10T04:32:14.021Z,11.70
2022-08-10T04:35:01.254Z,11.60
2022-08-10T04:37:50.761Z,11.60
2022-08-10T04:40:38.816Z,11.70
2022-08-10T04:43:25.776Z,11.60
2022-08-10T04:46:32.888Z,11.60
2022-08-10T04:49:54.835Z,11.70
2022-08-10T04:52:27.374Z,11.60
2022-08-10T04:55:16.192Z,11.60
2022-08-10T04:58:02.978Z,11.80
2022-08-10T05:00:51.149Z,11.80
2022-08-10T05:04:34.066Z,11.80
2022-08-10T05:06:45.497Z,11.90
2022-08-10T05:09:32.376Z,12.10
2022-08-10T05:12:21.289Z,12.10
2022-08-10T05:15:10.195Z,12.30
2022-08-10T05:18:04.611Z,12.40
2022-08-10T05:20:56.606Z,12.50
2022-08-10T05:23:43.250Z,12.70
2022-08-10T05:26:30.556Z,12.90
2022-08-10T05:29:19.048Z,12.90
2022-08-10T05:32:06.456Z,13.10
2022-08-10T05:34:53.158Z,13.30
2022-08-10T05:38:09.384Z,13.40
2022-08-10T05:40:48.987Z,13.60
2022-08-10T05:43:36.392Z,13.70
2022-08-10T05:46:24.886Z,14.00
2022-08-10T05:49:14.127Z,14.40
2022-08-10T05:52:01.265Z,14.70
2022-08-10T05:54:48.756Z,14.90
2022-08-10T05:57:36.345Z,15.30
2022-08-10T06:00:37.135Z,15.70
2022-08-10T06:03:34.822Z,15.80
2022-08-10T06:06:25.023Z,15.90
2022-08-10T06:09:13.636Z,16.10
2022-08-10T06:12:23.950Z,16.40
2022-08-10T06:15:21.430Z,16.50
2022-08-10T06:18:08.772Z,16.80
2022-08-10T06:20:58.616Z,17.00
2022-08-10T06:23:46.303Z,17.10
2022-08-10T06:26:33.328Z,17.20
2022-08-10T06:29:21.267Z,17.40
2022-08-10T06:32:11.862Z,17.50
2022-08-10T06:35:01.373Z,17.60
2022-08-10T06:37:52.153Z,17.80
2022-08-10T06:40:41.856Z,18.40
2022-08-10T06:43:32.043Z,19.20
2022-08-10T06:46:22.981Z,20.10
2022-08-10T06:49:11.776Z,20.70
2022-08-10T06:52:02.511Z,21.60
2022-08-10T06:54:54.359Z,22.00
2022-08-10T06:57:43.622Z,22.30
2022-08-10T07:00:34.338Z,23.10
2022-08-10T07:03:23.988Z,22.90
2022-08-10T07:06:14.253Z,23.10
2022-08-10T07:09:02.093Z,23.10
2022-08-10T07:11:51.992Z,23.20
2022-08-10T07:14:41.863Z,23.40
2022-08-10T07:17:29.838Z,24.00
2022-08-10T07:20:20.880Z,24.00
2022-08-10T07:23:56.043Z,24.10
2022-08-10T07:26:20.459Z,24.00
2022-08-10T07:29:52.759Z,24.40
2022-08-10T07:32:20.354Z,24.30
2022-08-10T07:35:09.832Z,24.40
2022-08-10T07:37:57.678Z,24.40
2022-08-10T07:40:45.638Z,24.40
2022-08-10T07:43:39.248Z,24.90
2022-08-10T07:46:30.526Z,25.30
2022-08-10T07:49:20.646Z,25.50
2022-08-10T07:52:10.569Z,25.90
2022-08-10T07:54:58.583Z,26.20
2022-08-10T07:57:49.602Z,25.00
2022-08-10T08:00:37.465Z,25.30
2022-08-10T08:03:28.607Z,24.10
2022-08-10T08:06:16.369Z,24.60
2022-08-10T08:09:05.225Z,25.40
2022-08-10T08:11:54.121Z,26.30
2022-08-10T08:14:43.560Z,26.40
2022-08-10T08:17:35.465Z,26.40
2022-08-10T08:20:25.696Z,26.00
2022-08-10T08:24:05.896Z,25.90
2022-08-10T08:26:24.158Z,26.00
2022-08-10T08:29:18.094Z,26.40
2022-08-10T08:32:06.676Z,25.90
2022-08-10T08:34:58.018Z,26.60
2022-08-10T08:38:31.248Z,26.90
2022-08-10T08:41:02.957Z,27.10
2022-08-10T08:44:05.198Z,26.90
2022-08-10T08:47:04.536Z,27.30
2022-08-10T08:50:37.838Z,27.20
2022-08-10T08:54:02.679Z,26.30
2022-08-10T08:57:03.867Z,26.60
2022-08-10T09:00:01.390Z,27.30
2022-08-10T09:03:31.752Z,27.40
2022-08-10T09:06:36.038Z,27.90
2022-08-10T09:10:00.818Z,27.20
2022-08-10T09:12:54.138Z,27.30
2022-08-10T09:15:51.359Z,27.90
2022-08-10T09:18:49.242Z,28.40
2022-08-10T09:21:58.803Z,28.10
2022-08-10T09:24:59.051Z,28.50
2022-08-10T09:27:49.589Z,29.10
2022-08-10T09:30:52.441Z,29.10
2022-08-10T09:36:26.782Z,29.30
2022-08-10T09:37:21.405Z,28.90
2022-08-10T09:41:00.191Z,28.60
2022-08-10T09:43:32.467Z,29.00
2022-08-10T09:46:35.078Z,29.20
2022-08-10T09:49:53.842Z,29.60
2022-08-10T09:52:58.676Z,28.40
2022-08-10T09:56:18.393Z,28.20
2022-08-10T09:59:27.070Z,29.30
2022-08-10T10:02:28.202Z,29.60
2022-08-10T10:05:31.123Z,29.90
2022-08-10T10:08:26.010Z,29.90
2022-08-10T10:11:21.028Z,29.60
2022-08-10T10:14:17.267Z,29.60
2022-08-10T10:17:09.520Z,29.60
2022-08-10T10:20:07.998Z,30.10
2022-08-10T10:23:02.814Z,29.70
2022-08-10T10:26:04.997Z,28.30
2022-08-10T10:29:55.802Z,27.50
2022-08-10T10:32:37.091Z,28.90
2022-08-10T10:35:28.129Z,28.90
2022-08-10T10:38:17.861Z,29.30
2022-08-10T10:41:13.214Z,29.60
2022-08-10T10:44:10.654Z,30.00
2022-08-10T10:47:08.529Z,31.00
2022-08-10T10:50:03.877Z,30.50
2022-08-10T10:52:59.566Z,30.10
2022-08-10T10:56:15.007Z,29.80
2022-08-10T10:59:54.616Z,29.80
2022-08-10T11:02:32.565Z,29.80
2022-08-10T11:05:28.231Z,30.10
2022-08-10T11:08:20.947Z,30.20
2022-08-10T11:12:01.310Z,30.60
2022-08-10T11:14:37.411Z,31.40
2022-08-10T11:17:32.199Z,31.30
2022-08-10T11:20:26.526Z,29.90
2022-08-10T11:23:23.463Z,29.70
2022-08-10T11:26:15.334Z,30.30
2022-08-10T11:29:10.817Z,30.50
2022-08-10T11:32:03.260Z,30.90
2022-08-10T11:35:10.310Z,30.80
2022-08-10T11:38:32.770Z,31.70
2022-08-10T11:42:09.352Z,32.10
2022-08-10T11:44:52.340Z,30.30
2022-08-10T11:47:47.651Z,29.90
2022-08-10T11:50:40.854Z,29.90
2022-08-10T11:53:39.096Z,31.00
2022-08-10T11:56:31.241Z,30.60
2022-08-10T11:59:38.034Z,30.40
2022-08-10T12:02:28.839Z,30.40
2022-08-10T12:05:19.959Z,30.60
2022-08-10T12:10:06.058Z,30.80
2022-08-10T12:11:24.588Z,30.60
2022-08-10T12:14:21.790Z,30.50
2022-08-10T12:17:14.978Z,29.90
2022-08-10T12:20:07.921Z,30.00
2022-08-10T12:22:58.541Z,28.80
2022-08-10T12:25:55.971Z,29.70
2022-08-10T12:28:51.914Z,29.00
2022-08-10T12:31:44.324Z,27.80
2022-08-10T12:34:36.434Z,27.70
2022-08-10T12:37:31.118Z,28.30
2022-08-10T12:40:38.538Z,28.50
2022-08-10T12:44:07.666Z,29.60
2022-08-10T12:46:43.014Z,30.20
2022-08-10T12:49:37.508Z,30.80
2022-08-10T12:52:30.391Z,30.50
2022-08-10T12:55:20.333Z,31.10
2022-08-10T12:58:58.191Z,30.50
2022-08-10T13:01:18.702Z,30.60
2022-08-10T13:04:20.299Z,30.20
2022-08-10T13:08:25.965Z,30.10
2022-08-10T13:10:19.707Z,29.20
2022-08-10T13:13:06.779Z,29.60
2022-08-10T13:15:57.360Z,29.20
2022-08-10T13:18:47.308Z,28.40
2022-08-10T13:21:39.220Z,28.70
2022-08-10T13:24:30.188Z,28.40
2022-08-10T13:27:26.721Z,28.80
2022-08-10T13:30:14.907Z,28.70
2022-08-10T13:33:02.990Z,28.80
2022-08-10T13:35:58.131Z,29.10
2022-08-10T13:38:49.891Z,29.00
2022-08-10T13:41:41.081Z,28.80
2022-08-10T13:44:33.495Z,28.70
2022-08-10T13:47:29.660Z,27.60
2022-08-10T13:50:33.228Z,27.90
2022-08-10T13:53:31.057Z,27.40
2022-08-10T13:56:19.316Z,27.20
2022-08-10T13:59:09.976Z,27.80
2022-08-10T14:02:00.167Z,28.20
2022-08-10T14:04:47.943Z,28.50
2022-08-10T14:07:39.700Z,28.90
2022-08-10T14:11:08.765Z,28.80
2022-08-10T14:13:59.983Z,28.80
2022-08-10T14:16:48.867Z,28.50
2022-08-10T14:19:43.621Z,28.00
2022-08-10T14:22:34.084Z,28.00
2022-08-10T14:25:22.348Z,27.90
2022-08-10T14:28:23.678Z,28.00
2022-08-10T14:31:17.463Z,27.50
2022-08-10T14:34:09.560Z,27.90
2022-08-10T14:37:00.456Z,27.90
2022-08-10T14:39:52.229Z,28.20
2022-08-10T14:42:50.164Z,28.20
2022-08-10T14:45:40.942Z,28.30
2022-08-10T14:48:33.035Z,28.40
2022-08-10T14:51:22.018Z,27.90
2022-08-10T14:54:15.025Z,27.50
2022-08-10T14:57:10.840Z,27.80
2022-08-10T15:00:24.228Z,28.00
2022-08-10T15:03:58.039Z,28.30
2022-08-10T15:06:20.256Z,28.30
2022-08-10T15:09:20.763Z,28.10
2022-08-10T15:12:15.756Z,28.20
2022-08-10T15:15:07.380Z,28.40
2022-08-10T15:17:59.034Z,27.90
2022-08-10T15:20:47.765Z,27.50
2022-08-10T15:24:05.429Z,27.50
2022-08-10T15:26:57.609Z,27.70
2022-08-10T15:29:57.382Z,27.60
2022-08-10T15:33:06.777Z,27.20
2022-08-10T15:36:17.255Z,26.70
2022-08-10T15:39:16.412Z,26.60
2022-08-10T15:42:08.739Z,26.80
2022-08-10T15:44:57.276Z,26.70
2022-08-10T15:47:52.773Z,27.00
2022-08-10T15:50:51.866Z,26.70
2022-08-10T15:53:49.401Z,26.80
2022-08-10T15:56:44.445Z,26.90
2022-08-10T15:59:41.430Z,26.70
2022-08-10T16:02:33.031Z,26.90
2022-08-10T16:06:00.404Z,26.80
2022-08-10T16:08:56.324Z,26.70
2022-08-10T16:11:46.542Z,26.50
2022-08-10T16:14:38.267Z,26.30
2022-08-10T16:17:25.786Z,26.40
2022-08-10T16:20:13.467Z,26.40
2022-08-10T16:23:05.185Z,26.00
2022-08-10T16:25:58.423Z,26.20
2022-08-10T16:28:55.761Z,26.20
2022-08-10T16:31:51.223Z,26.10
2022-08-10T16:34:40.233Z,26.00
2022-08-10T16:37:58.048Z,25.90
2022-08-10T16:40:43.284Z,25.70
2022-08-10T16:43:32.700Z,25.60
2022-08-10T16:46:22.363Z,25.10
2022-08-10T16:49:14.399Z,24.90
2022-08-10T16:52:02.449Z,25.10
2022-08-10T16:54:50.796Z,25.20
2022-08-10T16:57:43.103Z,25.10
2022-08-10T17:00:32.682Z,25.10
2022-08-10T17:04:08.354Z,25.30
2022-08-10T17:06:39.263Z,25.50
2022-08-10T17:09:28.289Z,25.40
2022-08-10T17:12:18.396Z,24.90
2022-08-10T17:15:09.771Z,24.70
2022-08-10T17:18:02.969Z,24.30
2022-08-10T17:20:52.251Z,24.00
2022-08-10T17:23:41.873Z,23.90
2022-08-10T17:26:37.068Z,23.80
2022-08-10T17:29:57.941Z,23.70
2022-08-10T17:32:44.309Z,23.80
2022-08-10T17:35:35.934Z,23.60
2022-08-10T17:38:24.667Z,23.50
2022-08-10T17:41:14.587Z,23.40
2022-08-10T17:44:06.388Z,23.20
2022-08-10T17:46:54.817Z,23.10
2022-08-10T17:49:43.301Z,23.00
2022-08-10T17:52:33.606Z,22.90
2022-08-10T17:55:22.417Z,22.90
2022-08-10T17:58:14.906Z,22.70
2022-08-10T18:01:41.461Z,22.70
2022-08-10T18:04:19.121Z,22.70
2022-08-10T18:07:08.309Z,22.60
2022-08-10T18:09:58.446Z,22.50
2022-08-10T18:12:47.759Z,22.40
2022-08-10T18:15:39.278Z,22.40
2022-08-10T18:18:31.572Z,22.30
2022-08-10T18:21:23.659Z,22.30
2022-08-10T18:24:16.902Z,22.20
2022-08-10T18:27:07.126Z,22.10
2022-08-10T18:29:56.346Z,22.00
2022-08-10T18:32:49.632Z,21.90
2022-08-10T18:35:37.622Z,21.80
2022-08-10T18:38:27.796Z,21.70
2022-08-10T18:41:19.353Z,21.70
2022-08-10T18:44:12.851Z,21.60
2022-08-10T18:47:05.578Z,21.50
2022-08-10T18:50:00.437Z,21.50
2022-08-10T18:52:53.169Z,21.40
2022-08-10T18:55:46.329Z,21.30
2022-08-10T18:59:06.993Z,21.30
2022-08-10T19:02:08.585Z,21.20
2022-08-10T19:05:30.587Z,21.10
2022-08-10T19:08:49.014Z,21.00
2022-08-10T19:11:52.710Z,21.00
2022-08-10T19:14:51.970Z,20.90
2022-08-10T19:18:05.576Z,20.90
2022-08-10T19:20:59.212Z,20.80
2022-08-10T19:23:56.652Z,20.80
2022-08-10T19:26:47.671Z,20.70
2022-08-10T19:30:09.222Z,20.60
2022-08-10T19:33:15.338Z,20.50
2022-08-10T19:36:13.152Z,20.40
2022-08-10T19:39:19.083Z,20.40
2022-08-10T19:42:15.539Z,20.40
2022-08-10T19:46:00.980Z,20.30
2022-08-10T19:48:31.011Z,20.30
2022-08-10T19:51:24.413Z,20.20
2022-08-10T19:54:18.346Z,20.10
2022-08-10T19:57:12.297Z,20.00
2022-08-10T20:00:19.390Z,19.90
2022-08-10T20:03:17.511Z,19.70
2022-08-10T20:06:19.848Z,19.50
2022-08-10T20:09:14.517Z,19.40
2022-08-10T20:12:03.768Z,19.40
2022-08-10T20:15:01.627Z,19.40
2022-08-10T20:17:57.241Z,19.40
2022-08-10T20:20:55.444Z,19.30
2022-08-10T20:23:55.683Z,19.40
2022-08-10T20:26:48.762Z,19.30
2022-08-10T20:29:58.824Z,19.30
2022-08-10T20:32:52.102Z,19.30
2022-08-10T20:35:49.329Z,19.20
2022-08-10T20:38:44.553Z,19.20
2022-08-10T20:41:57.980Z,19.10
2022-08-10T20:45:05.215Z,19.00
2022-08-10T20:47:59.319Z,18.80
2022-08-10T20:50:51.067Z,18.60
2022-08-10T20:53:45.592Z,18.50
2022-08-10T20:56:45.368Z,18.30
2022-08-10T21:00:04.290Z,18.10
2022-08-10T21:03:22.113Z,18.00
2022-08-10T21:06:42.584Z,17.80
2022-08-10T21:09:53.429Z,17.70
2022-08-10T21:13:18.434Z,17.50
2022-08-10T21:16:20.278Z,17.30
2022-08-10T21:19:30.033Z,17.20
2022-08-10T21:22:20.389Z,16.90
2022-08-10T21:25:15.440Z,16.80
2022-08-10T21:28:16.729Z,16.70
2022-08-10T21:31:31.591Z,16.50
2022-08-10T21:34:35.347Z,16.30
2022-08-10T21:37:39.631Z,16.20
2022-08-10T21:41:18.603Z,16.10
2022-08-10T21:44:34.154Z,15.90
2022-08-10T21:48:16.441Z,15.70
2022-08-10T21:51:24.717Z,15.70
2022-08-10T21:54:57.509Z,15.60
2022-08-10T21:58:08.918Z,15.40
2022-08-10T22:01:21.623Z,15.30
2022-08-10T22:04:45.719Z,15.20
2022-08-10T22:07:51.351Z,15.10
2022-08-10T22:11:03.527Z,14.90
2022-08-10T22:14:11.265Z,14.80
2022-08-10T22:18:09.990Z,14.70
2022-08-10T22:20:50.777Z,14.60
2022-08-10T22:24:16.563Z,14.50
2022-08-10T22:27:46.530Z,14.40
2022-08-10T22:31:27.265Z,14.30
2022-08-10T22:34:43.093Z,14.20
2022-08-10T22:37:57.583Z,14.10
2022-08-10T22:41:04.093Z,14.10
2022-08-10T22:44:09.317Z,14.00
2022-08-10T22:47:15.541Z,13.90
2022-08-10T22:50:05.543Z,13.90
2022-08-10T22:53:04.619Z,13.80
2022-08-10T22:56:14.864Z,13.70
2022-08-10T22:59:02.142Z,13.70
2022-08-10T23:02:07.783Z,13.70
2022-08-10T23:04:59.621Z,13.60
2022-08-10T23:07:56.007Z,13.60
2022-08-10T23:10:46.273Z,13.50
2022-08-10T23:13:36.862Z,13.50
2022-08-10T23:16:46.383Z,13.40
2022-08-10T23:19:36.261Z,13.40
2022-08-10T23:22:34.943Z,13.30
2022-08-10T23:25:30.029Z,13.30
2022-08-10T23:28:38.870Z,13.30
2022-08-10T23:32:00.729Z,13.30
2022-08-10T23:34:37.557Z,13.20
2022-08-10T23:37:29.078Z,13.10
2022-08-10T23:40:19.605Z,13.10
2022-08-10T23:43:09.040Z,13.00
2022-08-10T23:45:58.621Z,13.00
2022-08-10T23:48:47.772Z,13.00
2022-08-10T23:51:38.652Z,12.90
2022-08-10T23:54:49.820Z,12.80
2022-08-10T23:57:40.356Z,12.80
